Time;durP1;ratioP1;P1;durP2;ratioP2;P2;SDS_P1;SDS_P2;PMS_P1;PMS_P2;Temp;Humidity;BMP_temperature;BMP_pressure;BME280_temperature;BME280_humidity;BME280_pressure;Samples;Min_cycle;Max_cycle;Signal;HPM_P1;HPM_P2
2023/04/08 00:00:31;;;;;;;;;3.25;2.00;;;;;;;;5001832;28;61780;-80
2023/04/08 00:02:56;;;;;;;;;3.00;3.00;;;;;;;;4977066;28;61955;-80
2023/04/08 00:05:21;;;;;;;;;2.00;2.00;;;;;;;;4983044;28;62009;-80
2023/04/08 00:07:46;;;;;;;;;6.00;2.00;;;;;;;;4982007;28;61926;-80
2023/04/08 00:10:12;;;;;;;;;3.00;3.00;;;;;;;;4983230;28;61765;-80
2023/04/08 00:12:37;;;;;;;;;3.50;3.50;;;;;;;;4967232;28;62026;-80
2023/04/08 00:15:02;;;;;;;;;3.00;3.00;;;;;;;;4985080;28;62427;-79
2023/04/08 00:17:27;;;;;;;;;5.75;2.75;;;;;;;;4983388;28;63769;-80
2023/04/08 00:19:54;;;;;;;;;4.50;3.50;;;;;;;;5002198;28;61880;-80
2023/04/08 00:22:19;;;;;;;;;5.75;2.50;;;;;;;;4984494;28;61759;-80
2023/04/08 00:24:44;;;;;;;;;3.00;3.00;;;;;;;;4984318;28;61746;-80
2023/04/08 00:27:10;;;;;;;;;3.00;3.00;;;;;;;;5001260;28;61973;-80
2023/04/08 00:29:35;;;;;;;;;2.75;2.75;;;;;;;;4984194;28;61856;-80
2023/04/08 00:32:00;;;;;;;;;2.25;2.25;;;;;;;;4984567;28;61812;-80
2023/04/08 00:34:25;;;;;;;;;8.25;3.00;;;;;;;;5002158;28;61847;-80
2023/04/08 00:36:51;;;;;;;;;4.00;2.00;;;;;;;;4983110;28;64048;-80
2023/04/08 00:39:19;;;;;;;;;3.75;3.75;;;;;;;;4984234;28;61851;-80
2023/04/08 00:41:45;;;;;;;;;4.50;2.75;;;;;;;;5001187;28;61772;-80
2023/04/08 00:44:10;;;;;;;;;2.00;2.00;;;;;;;;4984353;28;61968;-80
2023/04/08 00:46:37;;;;;;;;;4.00;2.50;;;;;;;;5001299;28;61831;-80
2023/04/08 00:49:02;;;;;;;;;5.00;3.75;;;;;;;;4984111;28;61848;-80
2023/04/08 00:51:28;;;;;;;;;3.00;2.00;;;;;;;;5001110;28;61980;-80
2023/04/08 00:53:54;;;;;;;;;5.00;3.25;;;;;;;;4984898;28;61845;-80
2023/04/08 00:56:20;;;;;;;;;5.25;3.25;;;;;;;;4985223;28;63668;-80
2023/04/08 00:58:46;;;;;;;;;3.75;3.75;;;;;;;;5001948;28;61949;-79
2023/04/08 01:01:31;;;;;;;;;4.25;4.25;;;;;;;;5002412;28;61707;-80
2023/04/08 01:04:01;;;;;;;;;9.00;4.50;;;;;;;;4984194;28;61845;-79
2023/04/08 01:06:37;;;;;;;;;4.75;2.75;;;;;;;;4998163;28;61847;-79
2023/04/08 01:09:04;;;;;;;;;3.00;3.00;;;;;;;;4980571;28;62108;-79
2023/04/08 01:11:31;;;;;;;;;6.50;4.75;;;;;;;;4984607;28;61984;-79
2023/04/08 01:13:57;;;;;;;;;6.75;4.50;;;;;;;;4984521;28;62211;-78
2023/04/08 01:16:23;;;;;;;;;4.00;3.00;;;;;;;;5001621;28;61780;-78
2023/04/08 01:18:49;;;;;;;;;4.75;3.25;;;;;;;;4980343;28;61959;-79
2023/04/08 01:21:15;;;;;;;;;9.50;5.50;;;;;;;;4964619;28;61964;-78
2023/04/08 01:24:00;;;;;;;;;11.00;7.75;;;;;;;;4995394;28;61921;-78
2023/04/08 01:26:26;;;;;;;;;9.00;4.00;;;;;;;;4983544;28;64170;-79
2023/04/08 01:28:53;;;;;;;;;4.25;4.25;;;;;;;;5001787;28;61847;-78
2023/04/08 01:31:19;;;;;;;;;5.50;3.75;;;;;;;;5002219;28;61887;-78
2023/04/08 01:33:45;;;;;;;;;9.00;4.00;;;;;;;;4984317;28;62354;-78
2023/04/08 01:36:11;;;;;;;;;8.75;6.00;;;;;;;;4983167;28;63611;-78
2023/04/08 01:38:37;;;;;;;;;5.25;4.00;;;;;;;;4984082;28;61880;-79
2023/04/08 01:41:03;;;;;;;;;7.00;4.00;;;;;;;;5001644;28;61944;-79
2023/04/08 01:43:30;;;;;;;;;6.00;4.00;;;;;;;;5002263;28;61835;-78
2023/04/08 01:45:57;;;;;;;;;3.25;3.25;;;;;;;;4983190;28;63763;-79
2023/04/08 01:48:22;;;;;;;;;4.00;4.00;;;;;;;;4984013;28;62025;-79
2023/04/08 01:50:50;;;;;;;;;13.75;4.00;;;;;;;;5001561;28;61966;-78
2023/04/08 01:53:15;;;;;;;;;8.00;4.00;;;;;;;;5001672;28;61746;-78
2023/04/08 01:55:41;;;;;;;;;7.25;4.25;;;;;;;;4983602;28;63932;-78
2023/04/08 01:58:07;;;;;;;;;8.75;4.00;;;;;;;;4983768;28;61844;-79
2023/04/08 02:00:34;;;;;;;;;8.25;4.00;;;;;;;;5001323;28;61909;-78
2023/04/08 02:03:00;;;;;;;;;7.75;7.75;;;;;;;;5002778;28;61726;-78
2023/04/08 02:05:26;;;;;;;;;7.00;4.50;;;;;;;;5004458;28;62179;-79
2023/04/08 02:07:51;;;;;;;;;8.50;6.00;;;;;;;;5004631;28;62117;-78
2023/04/08 02:10:16;;;;;;;;;8.50;3.50;;;;;;;;5003059;28;62109;-78
2023/04/08 02:12:43;;;;;;;;;8.00;3.75;;;;;;;;4987461;28;61939;-78
2023/04/08 02:15:08;;;;;;;;;4.00;4.00;;;;;;;;5004282;28;62315;-78
2023/04/08 02:17:45;;;;;;;;;8.50;4.00;;;;;;;;4987072;28;61836;-78
2023/04/08 02:20:15;;;;;;;;;9.50;5.00;;;;;;;;5004732;28;61823;-78
2023/04/08 02:23:04;;;;;;;;;6.50;6.50;;;;;;;;4986866;28;61937;-78
2023/04/08 02:25:33;;;;;;;;;12.25;8.25;;;;;;;;4986598;28;63789;-78
2023/04/08 02:27:59;;;;;;;;;7.75;7.00;;;;;;;;4987250;28;62033;-78
2023/04/08 02:30:26;;;;;;;;;7.75;5.50;;;;;;;;5004196;28;61746;-79
2023/04/08 02:32:53;;;;;;;;;7.75;7.75;;;;;;;;5004842;28;61734;-78
2023/04/08 02:35:18;;;;;;;;;6.75;5.25;;;;;;;;4986400;28;64564;-79
2023/04/08 02:37:45;;;;;;;;;10.50;7.75;;;;;;;;4986273;28;61984;-79
2023/04/08 02:40:27;;;;;;;;;6.50;4.25;;;;;;;;4986666;28;62024;-78
2023/04/08 02:42:52;;;;;;;;;7.25;7.25;;;;;;;;5004698;28;61918;-78
2023/04/08 02:45:17;;;;;;;;;9.00;7.00;;;;;;;;5003974;28;62012;-78
2023/04/08 02:47:43;;;;;;;;;6.50;6.50;;;;;;;;4986740;28;61713;-78
2023/04/08 02:50:08;;;;;;;;;8.00;7.00;;;;;;;;5004662;28;62005;-78
2023/04/08 02:52:34;;;;;;;;;15.50;5.75;;;;;;;;4986371;28;61830;-78
2023/04/08 02:54:59;;;;;;;;;13.75;7.00;;;;;;;;4986091;28;64451;-78
2023/04/08 02:57:24;;;;;;;;;8.75;7.00;;;;;;;;4986476;28;62148;-78
2023/04/08 02:59:50;;;;;;;;;8.00;6.25;;;;;;;;4986192;28;61827;-78
2023/04/08 03:02:16;;;;;;;;;12.50;9.00;;;;;;;;5004144;28;62095;-78
2023/04/08 03:04:41;;;;;;;;;6.00;5.00;;;;;;;;4986226;28;63782;-78
2023/04/08 03:07:06;;;;;;;;;6.00;6.00;;;;;;;;5003661;28;62150;-78
2023/04/08 03:09:31;;;;;;;;;8.75;7.50;;;;;;;;4986510;28;61930;-78
2023/04/08 03:11:57;;;;;;;;;9.00;6.00;;;;;;;;4986481;28;62010;-78
2023/04/08 03:14:22;;;;;;;;;13.25;8.25;;;;;;;;5000444;28;61965;-78
2023/04/08 03:16:47;;;;;;;;;7.50;7.00;;;;;;;;4984386;28;61797;-79
2023/04/08 03:19:13;;;;;;;;;11.75;7.00;;;;;;;;4959093;28;61770;-78
2023/04/08 03:21:38;;;;;;;;;7.75;7.00;;;;;;;;4946562;28;61795;-79
2023/04/08 03:24:03;;;;;;;;;12.75;8.00;;;;;;;;4964386;28;61964;-78
2023/04/08 03:26:28;;;;;;;;;10.00;6.75;;;;;;;;4964499;28;61869;-78
2023/04/08 03:28:54;;;;;;;;;11.75;7.75;;;;;;;;4946950;28;61828;-78
2023/04/08 03:31:20;;;;;;;;;6.50;6.50;;;;;;;;4966438;28;62153;-78
2023/04/08 03:33:45;;;;;;;;;11.50;4.25;;;;;;;;4983508;28;62054;-78
2023/04/08 03:36:11;;;;;;;;;6.50;6.25;;;;;;;;4965868;28;62201;-78
2023/04/08 03:38:36;;;;;;;;;8.00;7.25;;;;;;;;4983913;28;62154;-79
2023/04/08 03:41:01;;;;;;;;;9.00;7.00;;;;;;;;4998764;28;61694;-78
2023/04/08 03:43:26;;;;;;;;;12.00;7.00;;;;;;;;5003041;28;63009;-78
2023/04/08 03:45:52;;;;;;;;;12.25;7.75;;;;;;;;5003708;28;61688;-78
2023/04/08 03:48:17;;;;;;;;;8.00;7.75;;;;;;;;4985466;28;62015;-78
2023/04/08 03:50:42;;;;;;;;;7.00;5.00;;;;;;;;5003059;28;61913;-78
2023/04/08 03:53:10;;;;;;;;;10.25;5.50;;;;;;;;5002914;28;61945;-78
2023/04/08 03:55:35;;;;;;;;;8.50;7.50;;;;;;;;4985532;28;62159;-77
2023/04/08 03:58:00;;;;;;;;;12.25;9.50;;;;;;;;4985951;28;62026;-79
2023/04/08 04:00:26;;;;;;;;;11.75;6.75;;;;;;;;5003376;28;61854;-79
2023/04/08 04:02:51;;;;;;;;;8.00;6.25;;;;;;;;4984578;28;63883;-78
2023/04/08 04:05:16;;;;;;;;;8.50;3.25;;;;;;;;5003052;28;62026;-79
2023/04/08 04:07:41;;;;;;;;;12.00;6.75;;;;;;;;5003136;28;61749;-78
2023/04/08 04:10:07;;;;;;;;;6.50;6.50;;;;;;;;4986268;28;62066;-79
2023/04/08 04:12:33;;;;;;;;;7.75;7.00;;;;;;;;4985215;28;63535;-79
2023/04/08 04:14:58;;;;;;;;;8.75;7.50;;;;;;;;4985695;28;62119;-78
2023/04/08 04:17:23;;;;;;;;;7.50;7.25;;;;;;;;5003570;28;62138;-78
2023/04/08 04:19:48;;;;;;;;;5.25;4.00;;;;;;;;5003228;28;61911;-78
2023/04/08 04:22:14;;;;;;;;;9.25;6.25;;;;;;;;5002305;28;61995;-78
2023/04/08 04:24:39;;;;;;;;;7.75;6.00;;;;;;;;4985129;28;61817;-78
2023/04/08 04:27:04;;;;;;;;;8.00;7.00;;;;;;;;5001845;28;61823;-78
2023/04/08 04:29:30;;;;;;;;;10.25;7.00;;;;;;;;5002782;28;62224;-79
2023/04/08 04:31:55;;;;;;;;;7.50;7.25;;;;;;;;4984048;28;64082;-78
2023/04/08 04:34:20;;;;;;;;;6.00;6.00;;;;;;;;4984648;28;61990;-78
2023/04/08 04:36:46;;;;;;;;;6.25;5.75;;;;;;;;5002480;28;61742;-78
2023/04/08 04:39:11;;;;;;;;;7.75;7.75;;;;;;;;4985346;28;61920;-78
2023/04/08 04:41:39;;;;;;;;;7.75;6.00;;;;;;;;5001113;28;62103;-78
2023/04/08 04:44:04;;;;;;;;;7.75;6.25;;;;;;;;4984783;28;61961;-78
2023/04/08 04:46:29;;;;;;;;;7.00;7.00;;;;;;;;5002349;28;62428;-78
2023/04/08 04:48:55;;;;;;;;;10.25;8.25;;;;;;;;4984725;28;61796;-78
2023/04/08 04:51:20;;;;;;;;;6.50;6.00;;;;;;;;5002051;28;61942;-78
2023/04/08 04:53:45;;;;;;;;;9.25;6.50;;;;;;;;5002379;28;61976;-78
2023/04/08 04:56:11;;;;;;;;;7.75;5.50;;;;;;;;5002431;28;61927;-79
2023/04/08 04:58:36;;;;;;;;;8.00;7.25;;;;;;;;4984388;28;62400;-78
2023/04/08 05:01:01;;;;;;;;;7.75;6.75;;;;;;;;5001433;28;61933;-78
2023/04/08 05:03:28;;;;;;;;;11.50;7.25;;;;;;;;5020321;28;61777;-78
2023/04/08 05:05:55;;;;;;;;;10.75;7.75;;;;;;;;5003937;28;62924;-78
2023/04/08 05:08:20;;;;;;;;;7.25;7.25;;;;;;;;5022703;28;61937;-79
2023/04/08 05:10:48;;;;;;;;;7.75;5.75;;;;;;;;5021883;28;61975;-79
2023/04/08 05:13:14;;;;;;;;;8.00;6.50;;;;;;;;5014033;28;61646;-79
2023/04/08 05:15:39;;;;;;;;;7.50;4.00;;;;;;;;5001280;28;61922;-79
2023/04/08 05:18:04;;;;;;;;;5.75;4.50;;;;;;;;5002844;28;61629;-79
2023/04/08 05:20:30;;;;;;;;;16.00;7.75;;;;;;;;5002340;28;61758;-79
2023/04/08 05:22:55;;;;;;;;;10.25;10.25;;;;;;;;5002152;28;62041;-79
2023/04/08 05:25:22;;;;;;;;;13.75;11.50;;;;;;;;5002053;28;61892;-83
2023/04/08 05:27:47;;;;;;;;;17.50;12.25;;;;;;;;4984235;28;61969;-81
2023/04/08 05:30:13;;;;;;;;;13.25;11.00;;;;;;;;4982225;28;63638;-80
2023/04/08 05:32:38;;;;;;;;;23.50;15.75;;;;;;;;4985456;28;62118;-79
2023/04/08 05:35:03;;;;;;;;;30.50;19.00;;;;;;;;5002210;28;62035;-81
2023/04/08 05:37:29;;;;;;;;;19.00;17.00;;;;;;;;4983027;28;61900;-80
2023/04/08 05:39:54;;;;;;;;;13.25;13.25;;;;;;;;5001353;28;62425;-80
2023/04/08 05:42:19;;;;;;;;;14.75;12.75;;;;;;;;4984161;28;61933;-81
2023/04/08 05:44:44;;;;;;;;;17.75;12.00;;;;;;;;5002118;28;61794;-81
2023/04/08 05:47:10;;;;;;;;;15.00;13.00;;;;;;;;5001955;28;62198;-80
2023/04/08 05:49:35;;;;;;;;;12.25;11.75;;;;;;;;5001549;28;62128;-80
2023/04/08 05:52:01;;;;;;;;;13.00;10.50;;;;;;;;4984048;28;62242;-81
2023/04/08 05:54:26;;;;;;;;;21.50;13.50;;;;;;;;5002128;28;61760;-79
2023/04/08 05:56:51;;;;;;;;;16.75;12.00;;;;;;;;5001914;28;61775;-79
2023/04/08 05:59:17;;;;;;;;;22.50;15.25;;;;;;;;4985046;28;61832;-78
2023/04/08 06:01:42;;;;;;;;;17.50;12.75;;;;;;;;4972921;28;62297;-78
2023/04/08 06:04:07;;;;;;;;;20.00;13.50;;;;;;;;5021560;28;61801;-78
2023/04/08 06:06:32;;;;;;;;;19.50;15.00;;;;;;;;5021606;28;62048;-80
2023/04/08 06:08:57;;;;;;;;;16.50;12.50;;;;;;;;5000036;28;63941;-77
2023/04/08 06:11:23;;;;;;;;;14.25;11.50;;;;;;;;5001790;28;61939;-78
2023/04/08 06:13:48;;;;;;;;;15.25;13.00;;;;;;;;5001318;28;61880;-78
2023/04/08 06:16:14;;;;;;;;;15.25;13.00;;;;;;;;4983513;28;61856;-78
2023/04/08 06:18:40;;;;;;;;;19.00;17.25;;;;;;;;5000916;28;62877;-79
2023/04/08 06:21:05;;;;;;;;;23.00;18.00;;;;;;;;5000507;28;62407;-78
2023/04/08 06:23:31;;;;;;;;;17.25;13.25;;;;;;;;5000182;28;61768;-78
2023/04/08 06:25:56;;;;;;;;;13.75;12.00;;;;;;;;4999148;28;62132;-78
2023/04/08 06:28:21;;;;;;;;;15.75;13.50;;;;;;;;5018644;28;62196;-79
2023/04/08 06:30:46;;;;;;;;;16.50;14.00;;;;;;;;4999721;28;62074;-79
2023/04/08 06:33:11;;;;;;;;;17.25;12.00;;;;;;;;4985720;28;61911;-78
2023/04/08 06:35:37;;;;;;;;;20.50;14.00;;;;;;;;4990290;28;61745;-79
2023/04/08 06:38:02;;;;;;;;;16.75;13.25;;;;;;;;4980872;28;61960;-79
2023/04/08 06:40:27;;;;;;;;;19.25;15.00;;;;;;;;4981253;28;62172;-83
2023/04/08 06:42:54;;;;;;;;;17.75;14.00;;;;;;;;4981497;28;61835;-83
2023/04/08 06:45:20;;;;;;;;;18.75;12.25;;;;;;;;4964210;28;61758;-83
2023/04/08 06:47:45;;;;;;;;;14.75;14.25;;;;;;;;4993101;28;62052;-83
2023/04/08 06:50:10;;;;;;;;;19.00;12.50;;;;;;;;4986080;28;61799;-83
2023/04/08 06:52:35;;;;;;;;;19.50;13.50;;;;;;;;5004289;28;61958;-83
2023/04/08 06:55:02;;;;;;;;;24.00;18.75;;;;;;;;4987102;28;62020;-84
2023/04/08 06:57:27;;;;;;;;;18.25;14.50;;;;;;;;4985548;28;63471;-84
2023/04/08 06:59:52;;;;;;;;;22.25;16.25;;;;;;;;4985596;28;61978;-84
2023/04/08 07:02:18;;;;;;;;;15.25;12.00;;;;;;;;5004509;28;61995;-84
2023/04/08 07:04:43;;;;;;;;;14.50;12.75;;;;;;;;4986916;28;62067;-83
2023/04/08 07:07:09;;;;;;;;;10.25;9.00;;;;;;;;5003576;28;61849;-85
2023/04/08 07:09:35;;;;;;;;;12.25;9.00;;;;;;;;4986070;28;62361;-82
2023/04/08 07:12:02;;;;;;;;;11.50;10.25;;;;;;;;4999934;28;61669;-82
2023/04/08 07:14:28;;;;;;;;;10.50;10.50;;;;;;;;4983212;28;61802;-80
2023/04/08 07:16:54;;;;;;;;;11.50;8.00;;;;;;;;4998928;28;62344;-80
2023/04/08 07:19:19;;;;;;;;;10.50;9.00;;;;;;;;5004374;28;62055;-81
2023/04/08 07:21:45;;;;;;;;;10.00;10.00;;;;;;;;5002925;28;62133;-80
2023/04/08 07:24:10;;;;;;;;;9.25;7.75;;;;;;;;4986364;28;61991;-80
2023/04/08 07:26:37;;;;;;;;;9.75;7.75;;;;;;;;5002974;28;61958;-80
2023/04/08 07:29:02;;;;;;;;;8.50;6.00;;;;;;;;5002174;28;62180;-81
2023/04/08 07:31:27;;;;;;;;;10.25;6.50;;;;;;;;5003817;28;61920;-80
2023/04/08 07:33:52;;;;;;;;;12.50;9.50;;;;;;;;5003662;28;61748;-79
2023/04/08 07:36:18;;;;;;;;;9.00;6.00;;;;;;;;4984681;28;63860;-80
2023/04/08 07:38:43;;;;;;;;;10.75;8.00;;;;;;;;4987141;28;62163;-81
2023/04/08 07:41:08;;;;;;;;;9.00;7.75;;;;;;;;4985814;28;61851;-81
2023/04/08 07:43:35;;;;;;;;;12.00;7.50;;;;;;;;4986496;28;62153;-80
2023/04/08 07:46:04;;;;;;;;;12.50;7.75;;;;;;;;5004034;28;62236;-81
2023/04/08 07:48:29;;;;;;;;;9.00;7.75;;;;;;;;4986126;28;61776;-81
2023/04/08 07:50:55;;;;;;;;;15.75;12.00;;;;;;;;4998493;28;61862;-81
2023/04/08 07:53:20;;;;;;;;;12.00;12.00;;;;;;;;4992205;28;61915;-81
2023/04/08 07:55:45;;;;;;;;;11.50;10.25;;;;;;;;5000784;28;62813;-81
2023/04/08 07:58:11;;;;;;;;;10.75;9.50;;;;;;;;5003628;28;61763;-81
2023/04/08 08:00:36;;;;;;;;;13.75;10.75;;;;;;;;4984902;28;61882;-80
2023/04/08 08:03:01;;;;;;;;;11.75;9.25;;;;;;;;5001835;28;62059;-80
2023/04/08 08:05:26;;;;;;;;;8.75;7.75;;;;;;;;5001193;28;63712;-81
2023/04/08 08:07:52;;;;;;;;;11.25;8.75;;;;;;;;5009128;28;61731;-80
2023/04/08 08:10:17;;;;;;;;;18.50;11.00;;;;;;;;5002983;28;62026;-81
2023/04/08 08:12:42;;;;;;;;;14.00;10.75;;;;;;;;4993429;28;61729;-81
2023/04/08 08:15:08;;;;;;;;;15.75;10.50;;;;;;;;4984872;28;63780;-80
2023/04/08 08:17:33;;;;;;;;;17.00;15.25;;;;;;;;5002909;28;61855;-81
2023/04/08 08:19:59;;;;;;;;;15.25;9.00;;;;;;;;5002780;28;61804;-82
2023/04/08 08:22:24;;;;;;;;;14.50;11.25;;;;;;;;5002793;28;61988;-79
2023/04/08 08:24:55;;;;;;;;;9.25;8.75;;;;;;;;5001951;28;62122;-81
2023/04/08 08:27:20;;;;;;;;;11.25;10.00;;;;;;;;4985308;28;61972;-81
2023/04/08 08:29:45;;;;;;;;;9.75;9.75;;;;;;;;5002275;28;61754;-81
2023/04/08 08:32:11;;;;;;;;;18.50;14.50;;;;;;;;5003337;28;62032;-81
2023/04/08 08:34:37;;;;;;;;;16.00;12.00;;;;;;;;4984360;28;65066;-81
2023/04/08 08:37:03;;;;;;;;;12.50;10.50;;;;;;;;4972637;28;62329;-81
2023/04/08 08:39:30;;;;;;;;;13.00;10.50;;;;;;;;5001050;28;62103;-81
2023/04/08 08:41:56;;;;;;;;;19.50;12.25;;;;;;;;5003147;28;62048;-81
2023/04/08 08:44:25;;;;;;;;;11.25;8.75;;;;;;;;4978394;28;63341;-82
2023/04/08 08:46:51;;;;;;;;;15.25;14.00;;;;;;;;4975233;28;62004;-81
2023/04/08 08:49:16;;;;;;;;;10.75;10.75;;;;;;;;4975355;28;61627;-81
2023/04/08 08:51:45;;;;;;;;;13.75;8.25;;;;;;;;4995070;28;61743;-80
2023/04/08 08:54:11;;;;;;;;;26.75;17.00;;;;;;;;4997141;28;61733;-80
2023/04/08 08:56:36;;;;;;;;;16.50;14.75;;;;;;;;4965469;28;61831;-80
2023/04/08 08:59:02;;;;;;;;;16.25;12.25;;;;;;;;4972594;28;61877;-81
2023/04/08 09:01:36;;;;;;;;;15.75;11.75;;;;;;;;4966280;28;61726;-81
2023/04/08 09:04:06;;;;;;;;;16.75;14.00;;;;;;;;4964903;28;64680;-80
2023/04/08 09:06:31;;;;;;;;;13.25;10.25;;;;;;;;4964918;28;62002;-80
2023/04/08 09:08:57;;;;;;;;;16.75;15.00;;;;;;;;4967294;28;61893;-79
2023/04/08 09:11:22;;;;;;;;;14.00;11.50;;;;;;;;4985260;28;62403;-80
2023/04/08 09:13:47;;;;;;;;;12.75;10.75;;;;;;;;4982941;28;63334;-79
2023/04/08 09:16:15;;;;;;;;;14.25;6.75;;;;;;;;5002479;28;61890;-80
2023/04/08 09:18:43;;;;;;;;;18.75;14.00;;;;;;;;4984712;28;61824;-80
2023/04/08 09:21:09;;;;;;;;;17.25;9.00;;;;;;;;4984083;28;61787;-80
2023/04/08 09:23:45;;;;;;;;;16.25;13.50;;;;;;;;5001056;28;61912;-80
2023/04/08 09:26:12;;;;;;;;;20.50;13.75;;;;;;;;4983140;28;62092;-78
2023/04/08 09:28:38;;;;;;;;;16.25;13.50;;;;;;;;4982719;28;61868;-78
2023/04/08 09:31:16;;;;;;;;;16.25;14.50;;;;;;;;5000485;28;62082;-78
2023/04/08 09:33:41;;;;;;;;;26.50;14.00;;;;;;;;4998996;28;63782;-79
2023/04/08 09:36:07;;;;;;;;;15.50;13.50;;;;;;;;5042134;28;8798;-78
2023/04/08 09:38:32;;;;;;;;;13.50;9.50;;;;;;;;5029721;28;8821;-78
2023/04/08 09:40:58;;;;;;;;;17.50;12.50;;;;;;;;5024421;28;8791;-78
2023/04/08 09:43:23;;;;;;;;;14.75;11.00;;;;;;;;5042123;28;9851;-79
2023/04/08 09:45:49;;;;;;;;;18.75;12.00;;;;;;;;5042208;28;8802;-78
2023/04/08 09:48:22;;;;;;;;;13.50;10.50;;;;;;;;5023499;28;8897;-78
2023/04/08 09:50:49;;;;;;;;;13.50;10.50;;;;;;;;5042415;28;8915;-79
2023/04/08 09:53:17;;;;;;;;;13.50;11.00;;;;;;;;5022263;28;11355;-78
2023/04/08 09:55:49;;;;;;;;;11.50;9.25;;;;;;;;5041556;28;11316;-78
2023/04/08 09:58:15;;;;;;;;;11.00;9.00;;;;;;;;5022896;28;11363;-78
2023/04/08 10:00:49;;;;;;;;;8.75;8.75;;;;;;;;5040700;28;11354;-78
2023/04/08 10:03:28;;;;;;;;;12.00;10.75;;;;;;;;5031793;28;11371;-78
2023/04/08 10:05:55;;;;;;;;;9.50;8.75;;;;;;;;5014197;28;11410;-77
2023/04/08 10:08:21;;;;;;;;;30.50;29.00;;;;;;;;5017763;28;11104;-80
2023/04/08 10:10:48;;;;;;;;;14.25;10.50;;;;;;;;5023121;28;11441;-80
2023/04/08 10:13:13;;;;;;;;;10.50;10.50;;;;;;;;5023911;28;12383;-81
2023/04/08 10:15:41;;;;;;;;;10.50;9.00;;;;;;;;5016395;28;11344;-80
2023/04/08 10:18:10;;;;;;;;;11.00;8.75;;;;;;;;5028858;28;8769;-80
2023/04/08 10:20:35;;;;;;;;;8.75;8.75;;;;;;;;5010270;28;11387;-82
2023/04/08 10:23:00;;;;;;;;;9.25;9.25;;;;;;;;5032147;28;11467;-82
2023/04/08 10:25:36;;;;;;;;;10.50;9.00;;;;;;;;5028863;28;8855;-80
2023/04/08 10:28:16;;;;;;;;;10.00;7.00;;;;;;;;5021611;28;8854;-81
2023/04/08 10:30:48;;;;;;;;;8.50;7.75;;;;;;;;5043966;28;11469;-82
2023/04/08 10:33:14;;;;;;;;;9.00;7.25;;;;;;;;5043880;28;11418;-81
2023/04/08 10:35:45;;;;;;;;;15.50;9.00;;;;;;;;5026620;28;11063;-84
2023/04/08 10:38:12;;;;;;;;;10.25;10.00;;;;;;;;5024793;28;8783;-84
2023/04/08 10:40:37;;;;;;;;;12.00;10.25;;;;;;;;5042923;28;11190;-85
2023/04/08 10:43:04;;;;;;;;;13.50;9.50;;;;;;;;5026003;28;11477;-83
2023/04/08 10:45:29;;;;;;;;;13.50;10.00;;;;;;;;5044428;28;8805;-83
2023/04/08 10:47:55;;;;;;;;;17.00;11.00;;;;;;;;5026323;28;11244;-83
2023/04/08 10:50:22;;;;;;;;;14.25;12.25;;;;;;;;5044130;28;8892;-83
2023/04/08 10:52:48;;;;;;;;;15.50;10.75;;;;;;;;5043735;28;9231;-83
2023/04/08 10:55:15;;;;;;;;;10.00;7.50;;;;;;;;5044531;28;11154;-84
2023/04/08 10:57:40;;;;;;;;;12.50;11.50;;;;;;;;5026284;28;10907;-82
2023/04/08 11:00:09;;;;;;;;;9.00;8.00;;;;;;;;5025958;28;10843;-83
2023/04/08 11:02:36;;;;;;;;;9.75;7.00;;;;;;;;5026646;28;11199;-83
2023/04/08 11:05:02;;;;;;;;;9.00;6.00;;;;;;;;5044220;28;11015;-82
2023/04/08 11:07:27;;;;;;;;;7.50;6.25;;;;;;;;5026367;28;11146;-83
2023/04/08 11:09:52;;;;;;;;;13.50;6.00;;;;;;;;5026512;28;8792;-83
2023/04/08 11:12:18;;;;;;;;;10.25;7.75;;;;;;;;5044680;28;8813;-83
2023/04/08 11:14:44;;;;;;;;;10.75;9.25;;;;;;;;5026463;28;9558;-83
2023/04/08 11:17:09;;;;;;;;;9.25;7.25;;;;;;;;5044397;28;10874;-83
2023/04/08 11:19:35;;;;;;;;;10.25;10.25;;;;;;;;5025834;28;8895;-83
2023/04/08 11:22:01;;;;;;;;;13.75;8.25;;;;;;;;5044021;28;8825;-84
2023/04/08 11:24:27;;;;;;;;;6.75;6.25;;;;;;;;5026566;28;8812;-83
2023/04/08 11:26:52;;;;;;;;;11.00;7.50;;;;;;;;5025906;28;11447;-83
2023/04/08 11:29:20;;;;;;;;;13.00;9.00;;;;;;;;5043979;28;8790;-83
2023/04/08 11:31:47;;;;;;;;;8.75;8.00;;;;;;;;5043903;28;9656;-84
2023/04/08 11:34:20;;;;;;;;;11.00;9.00;;;;;;;;5025492;28;10627;-84
2023/04/08 11:36:46;;;;;;;;;10.00;6.50;;;;;;;;5043341;28;10413;-83
2023/04/08 11:39:11;;;;;;;;;8.50;8.50;;;;;;;;5044207;28;10787;-84
2023/04/08 11:41:38;;;;;;;;;8.00;7.00;;;;;;;;5025782;28;9898;-82
2023/04/08 11:44:05;;;;;;;;;7.00;5.50;;;;;;;;5026149;28;8742;-81
2023/04/08 11:46:30;;;;;;;;;6.00;6.00;;;;;;;;5026089;28;10509;-82
2023/04/08 11:48:57;;;;;;;;;7.00;7.00;;;;;;;;5043470;28;10580;-81
2023/04/08 11:51:22;;;;;;;;;9.00;7.50;;;;;;;;5043691;28;9752;-81
2023/04/08 11:53:48;;;;;;;;;5.00;4.00;;;;;;;;5025630;28;10647;-81
2023/04/08 11:56:16;;;;;;;;;7.25;6.00;;;;;;;;5043823;28;8908;-81
2023/04/08 11:58:42;;;;;;;;;9.50;6.25;;;;;;;;5043040;28;8966;-84
2023/04/08 12:01:07;;;;;;;;;8.75;7.25;;;;;;;;5025773;28;10700;-82
2023/04/08 12:03:32;;;;;;;;;8.75;8.25;;;;;;;;5043484;28;8803;-81
2023/04/08 12:05:58;;;;;;;;;8.25;8.00;;;;;;;;5025575;28;8797;-82
2023/04/08 12:08:23;;;;;;;;;9.50;7.50;;;;;;;;5025549;28;8794;-82
2023/04/08 12:10:49;;;;;;;;;12.00;8.25;;;;;;;;5025344;28;10371;-82
2023/04/08 12:13:14;;;;;;;;;10.25;8.25;;;;;;;;5043806;28;8868;-82
2023/04/08 12:15:39;;;;;;;;;8.25;8.25;;;;;;;;5025448;28;8805;-82
2023/04/08 12:18:05;;;;;;;;;6.75;5.00;;;;;;;;5025387;28;8801;-82
2023/04/08 12:20:30;;;;;;;;;11.50;9.75;;;;;;;;5043523;28;8845;-83
2023/04/08 12:22:55;;;;;;;;;7.00;6.25;;;;;;;;5042959;28;8821;-83
2023/04/08 12:25:20;;;;;;;;;7.25;5.00;;;;;;;;5025804;28;8809;-83
2023/04/08 12:27:46;;;;;;;;;8.50;6.50;;;;;;;;5043302;28;8793;-83
2023/04/08 12:30:12;;;;;;;;;7.25;5.25;;;;;;;;5024922;28;9941;-83
2023/04/08 12:32:37;;;;;;;;;6.00;4.25;;;;;;;;5042712;28;8812;-83
2023/04/08 12:35:02;;;;;;;;;6.25;5.25;;;;;;;;5043085;28;8865;-83
2023/04/08 12:37:28;;;;;;;;;6.25;6.25;;;;;;;;5025447;28;9556;-83
2023/04/08 12:39:53;;;;;;;;;6.75;5.25;;;;;;;;5024810;28;10027;-83
2023/04/08 12:42:18;;;;;;;;;8.00;7.00;;;;;;;;5025307;28;8904;-83
2023/04/08 12:44:43;;;;;;;;;8.25;5.75;;;;;;;;5043167;28;8856;-83
2023/04/08 12:47:09;;;;;;;;;7.67;7.00;;;;;;;;5024739;28;8828;-84
2023/04/08 12:49:34;;;;;;;;;6.00;5.75;;;;;;;;5043052;28;8789;-84
2023/04/08 12:51:59;;;;;;;;;4.00;3.67;;;;;;;;5024841;28;8831;-83
2023/04/08 12:54:24;;;;;;;;;5.50;5.50;;;;;;;;5025345;28;8797;-83
2023/04/08 12:56:50;;;;;;;;;7.33;6.00;;;;;;;;5025089;28;8793;-83
2023/04/08 12:59:15;;;;;;;;;4.33;4.33;;;;;;;;5042379;28;8821;-83
2023/04/08 13:01:40;;;;;;;;;7.75;5.25;;;;;;;;5042619;28;8817;-83
2023/04/08 13:04:06;;;;;;;;;5.00;5.00;;;;;;;;5024910;28;8793;-83
2023/04/08 13:06:31;;;;;;;;;5.33;5.33;;;;;;;;5025805;28;61894;-83
2023/04/08 13:08:57;;;;;;;;;8.33;6.00;;;;;;;;4983589;28;64651;-83
2023/04/08 13:11:22;;;;;;;;;8.33;5.33;;;;;;;;4984725;28;61907;-83
2023/04/08 13:13:48;;;;;;;;;9.67;5.33;;;;;;;;4984514;28;61869;-83
2023/04/08 13:16:14;;;;;;;;;5.67;4.00;;;;;;;;4984642;28;61782;-83
2023/04/08 13:18:40;;;;;;;;;6.00;3.67;;;;;;;;4984185;28;63509;-83
2023/04/08 13:21:05;;;;;;;;;10.67;8.67;;;;;;;;4984008;28;61699;-83
2023/04/08 13:23:30;;;;;;;;;9.67;6.00;;;;;;;;5001833;28;61817;-83
2023/04/08 13:25:55;;;;;;;;;7.33;6.33;;;;;;;;5002467;28;61789;-84
2023/04/08 13:28:21;;;;;;;;;7.33;5.67;;;;;;;;4983608;28;64816;-83
2023/04/08 13:30:46;;;;;;;;;9.00;8.00;;;;;;;;4983978;28;62043;-84
2023/04/08 13:33:11;;;;;;;;;4.67;4.67;;;;;;;;5001532;28;61954;-83
2023/04/08 13:35:36;;;;;;;;;8.67;7.33;;;;;;;;5002361;28;61747;-84
2023/04/08 13:38:02;;;;;;;;;7.33;5.67;;;;;;;;4983842;28;63678;-83
2023/04/08 13:40:27;;;;;;;;;7.33;5.00;;;;;;;;5001755;28;61957;-83
2023/04/08 13:42:52;;;;;;;;;12.67;8.00;;;;;;;;4983843;28;61845;-83
2023/04/08 13:45:19;;;;;;;;;5.67;5.33;;;;;;;;5002147;28;61708;-84
2023/04/08 13:47:44;;;;;;;;;6.00;6.00;;;;;;;;4983722;28;64063;-84
2023/04/08 13:50:09;;;;;;;;;6.67;6.00;;;;;;;;5001426;28;62011;-84
2023/04/08 13:52:34;;;;;;;;;6.33;4.67;;;;;;;;4983981;28;61908;-84
2023/04/08 13:55:00;;;;;;;;;5.33;4.33;;;;;;;;4984208;28;62050;-84
2023/04/08 13:57:25;;;;;;;;;5.67;5.67;;;;;;;;4983248;28;64546;-84
2023/04/08 13:59:50;;;;;;;;;6.00;5.67;;;;;;;;5003330;28;61828;-83
2023/04/08 14:02:15;;;;;;;;;6.00;5.00;;;;;;;;4987282;28;61828;-84
2023/04/08 14:04:42;;;;;;;;;7.33;6.67;;;;;;;;4987894;28;61814;-84
2023/04/08 14:07:07;;;;;;;;;5.00;5.00;;;;;;;;5004048;28;62655;-83
2023/04/08 14:09:32;;;;;;;;;4.00;4.00;;;;;;;;5005180;28;61728;-83
2023/04/08 14:11:58;;;;;;;;;5.00;5.00;;;;;;;;4987346;28;61870;-83
2023/04/08 14:14:23;;;;;;;;;7.00;4.33;;;;;;;;4987577;28;61718;-84
2023/04/08 14:16:49;;;;;;;;;5.67;5.67;;;;;;;;5004713;28;62739;-84
2023/04/08 14:19:15;;;;;;;;;5.00;4.00;;;;;;;;4986980;28;61738;-84
2023/04/08 14:21:40;;;;;;;;;7.33;4.67;;;;;;;;5004576;28;61658;-83
2023/04/08 14:24:05;;;;;;;;;6.33;5.67;;;;;;;;5005225;28;61709;-84
2023/04/08 14:26:34;;;;;;;;;4.00;4.00;;;;;;;;4986065;28;63527;-84
2023/04/08 14:29:00;;;;;;;;;5.67;4.00;;;;;;;;4986502;28;61809;-84